createdAt,value
2018-12-03T00:00:27.469Z,99363.27
2018-12-03T00:02:59.501Z,99352.36
2018-12-03T00:05:27.877Z,99351.89
2018-12-03T00:07:56.127Z,99346.38
2018-12-03T00:10:24.378Z,99335.81
2018-12-03T00:12:52.634Z,99338.23
2018-12-03T00:15:20.875Z,99335.11
2018-12-03T00:17:49.142Z,99335.11
2018-12-03T00:20:17.442Z,99327.67
2018-12-03T00:22:45.716Z,99321.98
2018-12-03T00:25:13.976Z,99322.31
2018-12-03T00:27:48.550Z,99316.22
2018-12-03T00:30:16.887Z,99308.17
2018-12-03T00:32:45.167Z,99311.00
2018-12-03T00:35:13.580Z,99315.29
2018-12-03T00:37:41.841Z,99319.04
2018-12-03T00:40:10.310Z,99313.97
2018-12-03T00:42:38.550Z,99312.95
2018-12-03T00:45:06.830Z,99318.53
2018-12-03T00:47:35.068Z,99322.82
2018-12-03T00:50:03.285Z,99324.63
2018-12-03T00:52:31.569Z,99318.34
2018-12-03T00:54:59.798Z,99317.02
2018-12-03T00:57:28.084Z,99313.24
2018-12-03T00:59:56.320Z,99313.45
2018-12-03T01:02:26.355Z,99306.22
2018-12-03T01:04:55.108Z,99310.70
2018-12-03T01:07:23.544Z,99314.37
2018-12-03T01:09:52.087Z,99314.55
2018-12-03T01:12:20.347Z,99314.25
2018-12-03T01:14:48.657Z,99312.63
2018-12-03T01:17:16.894Z,99322.58
2018-12-03T01:19:45.167Z,99327.23
2018-12-03T01:22:13.469Z,99322.80
2018-12-03T01:24:41.871Z,99330.91
2018-12-03T01:27:10.133Z,99335.09
2018-12-03T01:29:38.359Z,99339.56
2018-12-03T01:32:06.614Z,99343.02
2018-12-03T01:34:34.880Z,99337.91
2018-12-03T01:37:03.213Z,99346.05
2018-12-03T01:39:31.453Z,99356.80
2018-12-03T01:41:59.679Z,99354.67
2018-12-03T01:44:27.905Z,99348.46
2018-12-03T01:46:56.132Z,99347.14
2018-12-03T01:49:24.371Z,99350.30
2018-12-03T01:51:52.668Z,99345.52
2018-12-03T01:54:20.894Z,99351.91
2018-12-03T01:56:49.133Z,99339.03
2018-12-03T01:59:17.382Z,99345.31
2018-12-03T02:01:45.662Z,99350.41
2018-12-03T02:04:13.885Z,99341.46
2018-12-03T02:06:42.167Z,99335.66
2018-12-03T02:09:10.431Z,99333.65
2018-12-03T02:11:38.677Z,99342.90
2018-12-03T02:14:07.421Z,99336.92
2018-12-03T02:16:35.691Z,99339.34
2018-12-03T02:19:03.989Z,99324.00
2018-12-03T02:21:32.233Z,99329.59
2018-12-03T02:24:00.589Z,99323.39
2018-12-03T02:26:28.832Z,99320.96
2018-12-03T02:28:57.063Z,99314.36
2018-12-03T02:31:25.351Z,99316.78
2018-12-03T02:33:53.809Z,99314.02
2018-12-03T02:36:22.058Z,99314.14
2018-12-03T02:38:50.294Z,99315.28
2018-12-03T02:41:18.535Z,99312.94
2018-12-03T02:43:46.852Z,99308.45
2018-12-03T02:46:15.067Z,99313.74
2018-12-03T02:48:43.302Z,99309.27
2018-12-03T02:51:11.551Z,99293.41
2018-12-03T02:53:39.812Z,99289.44
2018-12-03T02:56:08.009Z,99295.87
2018-12-03T02:58:36.292Z,99286.10
2018-12-03T03:01:07.440Z,99278.98
2018-12-03T03:03:35.713Z,99277.36
2018-12-03T03:06:03.983Z,99284.78
2018-12-03T03:08:32.263Z,99284.97
2018-12-03T03:11:00.559Z,99273.80
2018-12-03T03:13:28.800Z,99267.19
2018-12-03T03:15:57.079Z,99262.72
2018-12-03T03:18:25.307Z,99270.64
2018-12-03T03:20:53.554Z,99287.02
2018-12-03T03:23:21.789Z,99282.54
2018-12-03T03:25:50.088Z,99290.25
2018-12-03T03:28:18.319Z,99296.05
2018-12-03T03:30:46.553Z,99296.38
2018-12-03T03:33:14.866Z,99283.24
2018-12-03T03:35:43.114Z,99293.81
2018-12-03T03:38:11.402Z,99279.79
2018-12-03T03:40:39.723Z,99276.45
2018-12-03T03:43:08.058Z,99270.03
2018-12-03T03:45:36.351Z,99273.00
2018-12-03T03:48:04.870Z,99290.88
2018-12-03T03:50:33.177Z,99288.73
2018-12-03T03:53:01.491Z,99287.19
2018-12-03T03:55:29.804Z,99293.38
2018-12-03T03:57:58.137Z,99290.66
2018-12-03T04:00:26.443Z,99286.36
2018-12-03T04:02:54.707Z,99292.16
2018-12-03T04:05:22.997Z,99291.35
2018-12-03T04:07:51.359Z,99286.06
2018-12-03T04:10:19.847Z,99284.45
2018-12-03T04:12:48.153Z,99289.73
2018-12-03T04:15:16.878Z,99286.88
2018-12-03T04:17:45.345Z,99295.94
2018-12-03T04:20:15.691Z,99299.58
2018-12-03T04:22:45.333Z,99295.61
2018-12-03T04:25:13.946Z,99294.63
2018-12-03T04:27:42.219Z,99288.09
2018-12-03T04:30:13.102Z,99280.68
2018-12-03T04:32:41.529Z,99280.17
2018-12-03T04:35:10.339Z,99276.02
2018-12-03T04:37:38.639Z,99262.81
2018-12-03T04:40:11.269Z,99267.88
2018-12-03T04:42:39.577Z,99266.05
2018-12-03T04:45:11.096Z,99258.12
2018-12-03T04:47:39.371Z,99275.80
2018-12-03T04:50:15.608Z,99282.63
2018-12-03T04:52:43.888Z,99298.38
2018-12-03T04:55:12.992Z,99287.50
2018-12-03T04:57:41.265Z,99303.03
2018-12-03T05:00:16.551Z,99309.55
2018-12-03T05:02:45.925Z,99309.55
2018-12-03T05:05:14.237Z,99310.88
2018-12-03T05:07:42.527Z,99312.28
2018-12-03T05:10:13.016Z,99310.03
2018-12-03T05:12:41.458Z,99308.23
2018-12-03T05:15:10.732Z,99312.49
2018-12-03T05:17:39.320Z,99317.27
2018-12-03T05:20:09.321Z,99324.56
2018-12-03T05:22:37.596Z,99323.84
2018-12-03T05:25:06.909Z,99329.74
2018-12-03T05:27:35.177Z,99327.80
2018-12-03T05:30:03.779Z,99323.02
2018-12-03T05:32:32.017Z,99317.52
2018-12-03T05:35:00.261Z,99321.81
2018-12-03T05:37:28.482Z,99318.16
2018-12-03T05:39:56.709Z,99325.39
2018-12-03T05:42:24.965Z,99319.47
2018-12-03T05:44:53.225Z,99320.91
2018-12-03T05:47:21.490Z,99317.97
2018-12-03T05:49:49.681Z,99320.80
2018-12-03T05:52:17.960Z,99322.02
2018-12-03T05:54:46.203Z,99322.23
2018-12-03T05:57:14.460Z,99334.30
2018-12-03T05:59:42.681Z,99334.52
2018-12-03T06:02:11.004Z,99324.34
2018-12-03T06:04:39.281Z,99324.05
2018-12-03T06:07:07.477Z,99329.39
2018-12-03T06:09:35.734Z,99332.45
2018-12-03T06:12:03.995Z,99338.84
2018-12-03T06:14:32.265Z,99340.47
2018-12-03T06:17:00.487Z,99346.08
2018-12-03T06:19:28.721Z,99351.84
2018-12-03T06:21:56.972Z,99351.16
2018-12-03T06:24:25.244Z,99352.17
2018-12-03T06:26:53.530Z,99352.69
2018-12-03T06:29:21.788Z,99353.28
2018-12-03T06:31:50.019Z,99362.44
2018-12-03T06:34:19.062Z,99345.48
2018-12-03T06:36:46.562Z,99350.13
2018-12-03T06:39:14.811Z,99351.36
2018-12-03T06:41:43.055Z,99362.23
2018-12-03T06:44:11.345Z,99365.68
2018-12-03T06:46:39.603Z,99353.67
2018-12-03T06:49:07.860Z,99355.20
2018-12-03T06:51:36.181Z,99354.58
2018-12-03T06:54:04.457Z,99358.23
2018-12-03T06:56:32.738Z,99355.18
2018-12-03T06:59:00.978Z,99357.58
2018-12-03T07:01:29.241Z,99359.89
2018-12-03T07:03:57.508Z,99361.98
2018-12-03T07:06:25.722Z,99366.55
2018-12-03T07:08:54.099Z,99371.19
2018-12-03T07:11:22.354Z,99370.26
2018-12-03T07:13:50.654Z,99373.61
2018-12-03T07:16:18.898Z,99372.72
2018-12-03T07:18:47.187Z,99374.77
2018-12-03T07:21:15.430Z,99380.30
2018-12-03T07:23:43.701Z,99379.27
2018-12-03T07:26:11.938Z,99387.62
2018-12-03T07:28:40.179Z,99375.55
2018-12-03T07:31:08.440Z,99378.38
2018-12-03T07:33:36.755Z,99381.80
2018-12-03T07:36:05.460Z,99390.61
2018-12-03T07:38:33.772Z,99387.12
2018-12-03T07:41:02.002Z,99397.08
2018-12-03T07:43:30.268Z,99395.80
2018-12-03T07:45:58.531Z,99401.59
2018-12-03T07:48:26.761Z,99401.59
2018-12-03T07:50:55.090Z,99403.62
2018-12-03T07:53:23.329Z,99407.16
2018-12-03T07:55:51.602Z,99415.38
2018-12-03T07:58:21.350Z,99416.06
2018-12-03T08:00:54.135Z,99417.39
2018-12-03T08:03:22.694Z,99415.38
2018-12-03T08:05:50.945Z,99422.92
2018-12-03T08:08:19.255Z,99419.90
2018-12-03T08:10:49.309Z,99420.83
2018-12-03T08:13:18.427Z,99419.61
2018-12-03T08:15:46.659Z,99420.42
2018-12-03T08:18:16.685Z,99419.44
2018-12-03T08:20:50.062Z,99420.88
2018-12-03T08:23:22.357Z,99422.20
2018-12-03T08:25:50.629Z,99423.02
2018-12-03T08:28:18.856Z,99413.44
2018-12-03T08:30:47.121Z,99409.56
2018-12-03T08:33:15.389Z,99421.64
2018-12-03T08:35:43.809Z,99431.27
2018-12-03T08:38:12.060Z,99423.73
2018-12-03T08:40:40.340Z,99430.84
2018-12-03T08:43:08.647Z,99427.19
2018-12-03T08:45:36.886Z,99424.28
2018-12-03T08:48:05.192Z,99437.53
2018-12-03T08:50:33.460Z,99439.11
2018-12-03T08:53:01.776Z,99436.94
2018-12-03T08:55:30.108Z,99437.01
2018-12-03T08:57:58.322Z,99438.78
2018-12-03T09:00:29.807Z,99437.80
2018-12-03T09:03:03.512Z,99451.16
2018-12-03T09:05:33.064Z,99444.58
2018-12-03T09:08:01.340Z,99448.03
2018-12-03T09:10:29.650Z,99454.04
2018-12-03T09:12:58.948Z,99450.34
2018-12-03T09:15:27.187Z,99450.05
2018-12-03T09:17:55.498Z,99442.09
2018-12-03T09:20:23.755Z,99447.16
2018-12-03T09:22:52.019Z,99462.45
2018-12-03T09:25:24.161Z,99456.36
2018-12-03T09:27:52.405Z,99455.00
2018-12-03T09:30:20.636Z,99453.05
2018-12-03T09:32:48.903Z,99453.92
2018-12-03T09:35:17.195Z,99460.56
2018-12-03T09:37:45.448Z,99450.09
2018-12-03T09:40:23.770Z,99456.72
2018-12-03T09:42:52.394Z,99453.45
2018-12-03T09:45:20.629Z,99454.98
2018-12-03T09:47:49.517Z,99446.42
2018-12-03T09:50:19.980Z,99443.77
2018-12-03T09:52:48.340Z,99445.80
2018-12-03T09:55:24.911Z,99446.31
2018-12-03T09:58:00.827Z,99441.42
2018-12-03T10:00:29.089Z,99446.01
2018-12-03T10:02:59.048Z,99443.06
2018-12-03T10:05:31.133Z,99441.33
2018-12-03T10:07:59.372Z,99445.37
2018-12-03T10:10:27.648Z,99446.20
2018-12-03T10:12:55.932Z,99439.77
2018-12-03T10:15:28.218Z,99434.88
2018-12-03T10:17:58.160Z,99435.09
2018-12-03T10:20:26.501Z,99440.27
2018-12-03T10:22:54.758Z,99429.98
2018-12-03T10:25:23.030Z,99443.63
2018-12-03T10:27:51.269Z,99438.75
2018-12-03T10:30:20.806Z,99439.38
2018-12-03T10:32:51.487Z,99434.78
2018-12-03T10:35:19.778Z,99433.05
2018-12-03T10:37:48.348Z,99430.63
2018-12-03T10:40:18.869Z,99428.51
2018-12-03T10:42:48.203Z,99441.75
2018-12-03T10:45:19.308Z,99433.40
2018-12-03T10:47:47.589Z,99426.67
2018-12-03T10:50:22.217Z,99419.95
2018-12-03T10:52:47.296Z,99419.32
2018-12-03T10:55:15.569Z,99421.97
2018-12-03T10:57:45.114Z,99414.87
2018-12-03T11:00:22.799Z,99419.73
2018-12-03T11:02:58.115Z,99419.44
2018-12-03T11:05:33.321Z,99408.96
2018-12-03T11:08:01.571Z,99409.36
2018-12-03T11:10:35.270Z,99404.08
2018-12-03T11:13:03.476Z,99402.64
2018-12-03T11:15:31.830Z,99402.97
2018-12-03T11:18:01.041Z,99401.94
2018-12-03T11:21:58.607Z,99397.16
2018-12-03T11:24:26.054Z,99397.86
2018-12-03T11:26:53.628Z,99405.58
2018-12-03T11:29:21.390Z,99396.02
2018-12-03T11:31:48.854Z,99399.19
2018-12-03T11:34:17.132Z,99401.83
2018-12-03T11:36:44.560Z,99401.42
2018-12-03T11:39:12.045Z,99393.19
2018-12-03T11:41:39.481Z,99394.92
2018-12-03T11:44:06.964Z,99396.83
2018-12-03T11:46:35.246Z,99383.60
2018-12-03T11:49:02.696Z,99383.01
2018-12-03T11:51:30.102Z,99384.11
2018-12-03T11:53:57.590Z,99383.11
2018-12-03T11:56:25.145Z,99388.48
2018-12-03T11:58:52.579Z,99378.53
2018-12-03T12:01:20.010Z,99371.09
2018-12-03T12:03:47.532Z,99371.21
2018-12-03T12:06:14.990Z,99366.84
2018-12-03T12:08:42.401Z,99361.11
2018-12-03T12:11:09.870Z,99359.48
2018-12-03T12:13:37.339Z,99358.06
2018-12-03T12:16:05.006Z,99352.17
2018-12-03T12:18:32.414Z,99350.74
2018-12-03T12:20:59.852Z,99357.47
2018-12-03T12:23:27.285Z,99364.59
2018-12-03T12:25:54.703Z,99360.63
2018-12-03T12:28:22.188Z,99359.20
2018-12-03T12:30:49.652Z,99364.08
2018-12-03T12:33:18.166Z,99353.09
2018-12-03T12:35:45.813Z,99358.16
2018-12-03T12:38:13.284Z,99354.41
2018-12-03T12:40:40.806Z,99346.57
2018-12-03T12:43:08.233Z,99343.81
2018-12-03T12:45:35.740Z,99344.23
2018-12-03T12:48:03.263Z,99332.84
2018-12-03T12:50:30.733Z,99343.53
2018-12-03T12:52:58.205Z,99338.64
2018-12-03T12:55:25.636Z,99334.35
2018-12-03T12:57:53.077Z,99338.02
2018-12-03T13:00:20.580Z,99332.11
2018-12-03T13:02:48.008Z,99325.02
2018-12-03T13:05:15.624Z,99319.22
2018-12-03T13:07:43.121Z,99318.41
2018-12-03T13:10:10.715Z,99313.70
2018-12-03T13:12:38.155Z,99312.49
2018-12-03T13:15:07.660Z,99306.98
2018-12-03T13:17:35.073Z,99303.12
2018-12-03T13:20:02.581Z,99303.64
2018-12-03T13:22:33.520Z,99299.37
2018-12-03T13:25:00.979Z,99300.59
2018-12-03T13:27:28.529Z,99293.17
2018-12-03T13:29:55.989Z,99296.41
2018-12-03T13:32:23.451Z,99296.29
2018-12-03T13:34:50.904Z,99306.05
2018-12-03T13:37:18.362Z,99302.08
2018-12-03T13:39:45.812Z,99317.08
2018-12-03T13:42:13.219Z,99321.34
2018-12-03T13:44:40.631Z,99297.51
2018-12-03T13:47:08.082Z,99289.01
2018-12-03T13:49:35.501Z,99292.34
2018-12-03T13:52:02.944Z,99294.02
2018-12-03T13:54:30.450Z,99294.97
2018-12-03T13:56:57.872Z,99288.16
2018-12-03T13:59:25.366Z,99288.16
2018-12-03T14:01:52.793Z,99289.90
2018-12-03T14:04:22.188Z,99292.33
2018-12-03T14:06:49.656Z,99288.92
2018-12-03T14:09:17.153Z,99289.04
2018-12-03T14:11:44.712Z,99285.72
2018-12-03T14:14:12.946Z,99286.52
2018-12-03T14:16:42.814Z,99293.93
2018-12-03T14:19:10.450Z,99285.30
2018-12-03T14:21:37.933Z,99294.36
2018-12-03T14:24:06.020Z,99287.94
2018-12-03T14:26:33.541Z,99277.50
2018-12-03T14:29:00.971Z,99260.46
2018-12-03T14:31:28.468Z,99274.17
2018-12-03T14:33:55.888Z,99270.09
2018-12-03T14:36:23.325Z,99273.92
2018-12-03T14:38:50.742Z,99279.50
2018-12-03T14:41:18.182Z,99281.00
2018-12-03T14:43:45.643Z,99270.95
2018-12-03T14:46:13.125Z,99275.34
2018-12-03T14:48:40.568Z,99276.95
2018-12-03T14:51:07.986Z,99275.97
2018-12-03T14:53:35.483Z,99273.84
2018-12-03T14:56:02.917Z,99272.19
2018-12-03T14:58:30.389Z,99264.66
2018-12-03T15:00:57.952Z,99261.30
2018-12-03T15:03:25.395Z,99261.98
2018-12-03T15:05:52.967Z,99261.05
2018-12-03T15:08:20.379Z,99261.14
2018-12-03T15:10:47.801Z,99257.19
2018-12-03T15:13:15.231Z,99261.34
2018-12-03T15:15:42.702Z,99265.99
2018-12-03T15:18:10.131Z,99269.34
2018-12-03T15:20:37.568Z,99264.61
2018-12-03T15:23:05.003Z,99270.90
2018-12-03T15:25:32.439Z,99271.28
2018-12-03T15:27:59.971Z,99269.03
2018-12-03T15:30:27.415Z,99260.30
2018-12-03T15:32:54.835Z,99268.39
2018-12-03T15:35:22.341Z,99273.58
2018-12-03T15:37:49.775Z,99261.58
2018-12-03T15:40:17.341Z,99269.70
2018-12-03T15:42:44.811Z,99274.85
2018-12-03T15:45:12.253Z,99276.34
2018-12-03T15:47:39.728Z,99271.07
2018-12-03T15:50:07.300Z,99275.03
2018-12-03T15:52:34.721Z,99281.11
2018-12-03T15:55:02.316Z,99276.85
2018-12-03T15:57:29.768Z,99287.27
2018-12-03T15:59:57.210Z,99278.89
2018-12-03T16:02:24.713Z,99278.98
2018-12-03T16:04:52.271Z,99282.20
2018-12-03T16:07:19.694Z,99283.53
2018-12-03T16:09:47.120Z,99282.51
2018-12-03T16:12:14.604Z,99273.48
2018-12-03T16:14:42.020Z,99276.30
2018-12-03T16:17:09.468Z,99280.08
2018-12-03T16:19:36.980Z,99279.06
2018-12-03T16:22:04.522Z,99270.13
2018-12-03T16:24:31.992Z,99267.92
2018-12-03T16:26:59.435Z,99260.14
2018-12-03T16:29:26.917Z,99252.66
2018-12-03T16:31:54.510Z,99235.12
2018-12-03T16:34:21.947Z,99237.25
2018-12-03T16:36:49.501Z,99233.80
2018-12-03T16:39:16.905Z,99242.53
2018-12-03T16:41:44.319Z,99262.64
2018-12-03T16:44:11.741Z,99289.11
2018-12-03T16:46:39.198Z,99264.95
2018-12-03T16:49:06.638Z,99273.45
2018-12-03T16:51:34.058Z,99276.17
2018-12-03T16:54:01.479Z,99268.94
2018-12-03T16:56:28.926Z,99264.86
2018-12-03T16:58:56.353Z,99266.30
2018-12-03T17:01:23.929Z,99278.59
2018-12-03T17:03:51.396Z,99271.63
2018-12-03T17:06:18.823Z,99270.73
2018-12-03T17:08:46.312Z,99259.88
2018-12-03T17:11:13.780Z,99273.25
2018-12-03T17:13:41.218Z,99263.59
2018-12-03T17:16:08.640Z,99268.86
2018-12-03T17:18:36.212Z,99270.18
2018-12-03T17:21:03.732Z,99268.86
2018-12-03T17:23:31.397Z,99263.59
2018-12-03T17:25:58.920Z,99257.93
2018-12-03T17:28:26.678Z,99258.73
2018-12-03T17:30:54.138Z,99255.50
2018-12-03T17:33:21.566Z,99250.99
2018-12-03T17:35:49.153Z,99253.50
2018-12-03T17:38:16.631Z,99253.20
2018-12-03T17:40:44.055Z,99262.43
2018-12-03T17:43:11.515Z,99275.91
2018-12-03T17:45:38.997Z,99269.45
2018-12-03T17:48:06.417Z,99274.85
2018-12-03T17:50:33.848Z,99267.88
2018-12-03T17:53:01.377Z,99270.94
2018-12-03T17:55:28.834Z,99276.31
2018-12-03T17:57:56.284Z,99275.45
2018-12-03T18:00:23.723Z,99269.16
2018-12-03T18:02:51.152Z,99268.02
2018-12-03T18:05:18.589Z,99267.08
2018-12-03T18:07:46.010Z,99265.53
2018-12-03T18:10:13.571Z,99276.30
2018-12-03T18:12:41.025Z,99268.48
2018-12-03T18:15:08.579Z,99282.30
2018-12-03T18:17:36.125Z,99281.11
2018-12-03T18:20:04.306Z,99282.73
2018-12-03T18:22:31.777Z,99291.27
2018-12-03T18:24:59.208Z,99292.17
2018-12-03T18:27:26.627Z,99294.94
2018-12-03T18:29:54.138Z,99293.63
2018-12-03T18:32:21.558Z,99302.20
2018-12-03T18:34:49.043Z,99298.25
2018-12-03T18:37:16.468Z,99299.27
2018-12-03T18:39:43.930Z,99304.84
2018-12-03T18:42:11.345Z,99307.78
2018-12-03T18:44:38.773Z,99310.62
2018-12-03T18:47:06.344Z,99306.76
2018-12-03T18:49:33.810Z,99309.61
2018-12-03T18:52:01.353Z,99315.09
2018-12-03T18:54:28.810Z,99313.05
2018-12-03T18:56:56.279Z,99313.69
2018-12-03T18:59:23.733Z,99314.29
2018-12-03T19:01:51.169Z,99312.16
2018-12-03T19:04:18.629Z,99314.29
2018-12-03T19:06:46.088Z,99313.61
2018-12-03T19:09:13.574Z,99313.09
2018-12-03T19:11:41.006Z,99316.97
2018-12-03T19:14:08.490Z,99315.14
2018-12-03T19:16:36.027Z,99324.20
2018-12-03T19:19:03.451Z,99321.27
2018-12-03T19:21:30.949Z,99319.73
2018-12-03T19:23:58.415Z,99318.72
2018-12-03T19:26:25.852Z,99322.50
2018-12-03T19:28:53.289Z,99331.73
2018-12-03T19:31:20.780Z,99337.52
2018-12-03T19:33:48.330Z,99333.95
2018-12-03T19:36:15.754Z,99341.53
2018-12-03T19:38:43.247Z,99340.67
2018-12-03T19:41:10.712Z,99342.28
2018-12-03T19:43:38.164Z,99352.16
2018-12-03T19:46:05.590Z,99343.95
2018-12-03T19:48:33.038Z,99353.69
2018-12-03T19:51:00.544Z,99363.73
2018-12-03T19:53:27.992Z,99361.61
2018-12-03T19:55:55.443Z,99354.67
2018-12-03T19:58:23.008Z,99360.89
2018-12-03T20:00:50.438Z,99357.77
2018-12-03T20:03:17.930Z,99376.37
2018-12-03T20:05:45.489Z,99370.79
2018-12-03T20:08:12.923Z,99374.88
2018-12-03T20:10:40.355Z,99380.62
2018-12-03T20:13:07.844Z,99388.55
2018-12-03T20:15:35.268Z,99389.86
2018-12-03T20:18:02.750Z,99400.11
2018-12-03T20:20:30.414Z,99404.78
2018-12-03T20:22:57.913Z,99407.26
2018-12-03T20:25:25.372Z,99399.90
2018-12-03T20:27:52.908Z,99401.16
2018-12-03T20:30:24.236Z,99406.20
2018-12-03T20:32:51.998Z,99405.13
2018-12-03T20:35:19.457Z,99404.52
2018-12-03T20:37:46.956Z,99401.55
2018-12-03T20:40:16.194Z,99414.56
2018-12-03T20:42:43.788Z,99418.52
2018-12-03T20:45:17.915Z,99422.78
2018-12-03T20:47:46.612Z,99422.61
2018-12-03T20:50:15.869Z,99425.04
2018-12-03T20:52:47.452Z,99416.63
2018-12-03T20:55:14.878Z,99429.30
2018-12-03T20:57:42.451Z,99434.06
2018-12-03T21:00:10.716Z,99436.23
2018-12-03T21:02:38.201Z,99431.43
2018-12-03T21:05:06.045Z,99438.36
2018-12-03T21:07:33.478Z,99437.04
2018-12-03T21:10:00.905Z,99442.63
2018-12-03T21:12:28.317Z,99445.77
2018-12-03T21:14:55.757Z,99439.41
2018-12-03T21:17:23.179Z,99451.14
2018-12-03T21:19:52.020Z,99456.62
2018-12-03T21:22:19.446Z,99450.33
2018-12-03T21:24:46.897Z,99449.34
2018-12-03T21:27:14.319Z,99466.29
2018-12-03T21:29:41.738Z,99467.61
2018-12-03T21:32:09.178Z,99473.89
2018-12-03T21:34:36.600Z,99472.07
2018-12-03T21:37:04.105Z,99483.43
2018-12-03T21:39:31.522Z,99497.63
2018-12-03T21:41:58.959Z,99483.19
2018-12-03T21:44:26.386Z,99488.94
2018-12-03T21:46:53.829Z,99496.55
2018-12-03T21:49:21.270Z,99499.89
2018-12-03T21:51:48.762Z,99509.79
2018-12-03T21:54:16.202Z,99507.80
2018-12-03T21:56:43.665Z,99513.68
2018-12-03T21:59:11.118Z,99514.70
2018-12-03T22:01:38.650Z,99515.81
2018-12-03T22:04:06.159Z,99527.17
2018-12-03T22:06:33.648Z,99529.70
2018-12-03T22:09:01.152Z,99530.69
2018-12-03T22:11:28.623Z,99534.78
2018-12-03T22:13:56.080Z,99556.94
2018-12-03T22:16:23.529Z,99548.19
2018-12-03T22:18:51.181Z,99552.14
2018-12-03T22:21:18.643Z,99565.83
2018-12-03T22:23:46.119Z,99566.84
2018-12-03T22:26:13.558Z,99574.25
2018-12-03T22:28:41.023Z,99579.22
2018-12-03T22:31:08.470Z,99589.92
2018-12-03T22:33:35.911Z,99591.75
2018-12-03T22:36:03.383Z,99602.23
2018-12-03T22:38:30.848Z,99603.55
2018-12-03T22:40:58.297Z,99606.28
2018-12-03T22:43:25.770Z,99618.03
2018-12-03T22:45:53.207Z,99616.72
2018-12-03T22:48:20.640Z,99623.31
2018-12-03T22:50:48.136Z,99627.43
2018-12-03T22:53:15.552Z,99643.00
2018-12-03T22:55:42.960Z,99653.48
2018-12-03T22:58:10.411Z,99667.13
2018-12-03T23:00:38.181Z,99670.72
2018-12-03T23:03:05.657Z,99671.55
2018-12-03T23:05:33.066Z,99684.62
2018-12-03T23:08:00.503Z,99683.73
2018-12-03T23:10:27.918Z,99695.33
2018-12-03T23:12:55.379Z,99700.29
2018-12-03T23:15:22.868Z,99723.00
2018-12-03T23:17:50.377Z,99730.75
2018-12-03T23:20:17.813Z,99734.91
2018-12-03T23:22:45.240Z,99755.06
2018-12-03T23:25:12.737Z,99759.88
2018-12-03T23:27:40.190Z,99774.91
2018-12-03T23:30:07.723Z,99779.58
2018-12-03T23:32:35.212Z,99789.88
2018-12-03T23:35:02.663Z,99802.75
2018-12-03T23:37:30.221Z,99822.20
2018-12-03T23:39:57.693Z,99837.73
2018-12-03T23:42:25.144Z,99845.04
2018-12-03T23:44:52.597Z,99876.50
2018-12-03T23:47:20.069Z,99880.47
2018-12-03T23:49:47.617Z,99882.91
2018-12-03T23:52:15.068Z,99889.17
2018-12-03T23:54:42.487Z,99899.98
2018-12-03T23:57:09.981Z,99909.99
2018-12-03T23:59:37.717Z,99923.27
